Terminal Aerodrome Forecast
Issued by NWS

Home | Current Version | Previous Version | Text Only | Print | Product List | Glossary On
Versions: 1 2 3 4 5 6 7 8 9 10 11 12 13
000
FTUS45 KTFX 242300
TAFLWT
TAF
KLWT 242338Z 2500/2524 31015G32KT P6SM SCT150
     FM250300 24011KT P6SM SKC
     FM252000 27015G25KT P6SM SKC=

USA.gov is the U.S. government's official web portal to all federal, state and local government web resources and services.